sensor_id;sensor_type;location;lat;lon;timestamp;pressure;altitude;pressure_sealevel;temperature;humidity
37792;BME280;29527;55.766;37.570;2023-04-26T00:00:18;98556.03;;;13.14;64.71
37792;BME280;29527;55.766;37.570;2023-04-26T00:02:44;98549.69;;;13.06;65.15
37792;BME280;29527;55.766;37.570;2023-04-26T00:05:10;98554.19;;;13.06;65.77
37792;BME280;29527;55.766;37.570;2023-04-26T00:07:36;98546.31;;;13.04;65.92
37792;BME280;29527;55.766;37.570;2023-04-26T00:10:05;98540.97;;;13.04;66.07
37792;BME280;29527;55.766;37.570;2023-04-26T00:12:31;98528.84;;;13.00;65.98
37792;BME280;29527;55.766;37.570;2023-04-26T00:14:57;98532.91;;;12.96;66.11
37792;BME280;29527;55.766;37.570;2023-04-26T00:17:23;98542.16;;;12.94;66.23
37792;BME280;29527;55.766;37.570;2023-04-26T00:19:49;98531.56;;;12.92;65.96
37792;BME280;29527;55.766;37.570;2023-04-26T00:22:15;98527.72;;;12.86;66.02
37792;BME280;29527;55.766;37.570;2023-04-26T00:24:41;98526.69;;;12.87;66.37
37792;BME280;29527;55.766;37.570;2023-04-26T00:27:07;98538.28;;;12.88;66.51
37792;BME280;29527;55.766;37.570;2023-04-26T00:29:35;98519.84;;;12.85;66.59
37792;BME280;29527;55.766;37.570;2023-04-26T00:32:02;98525.22;;;12.85;66.63
37792;BME280;29527;55.766;37.570;2023-04-26T00:34:32;98525.56;;;12.82;66.91
37792;BME280;29527;55.766;37.570;2023-04-26T00:36:58;98521.03;;;12.74;66.61
37792;BME280;29527;55.766;37.570;2023-04-26T00:39:24;98528.56;;;12.70;66.94
37792;BME280;29527;55.766;37.570;2023-04-26T00:41:49;98516.00;;;12.71;67.05
37792;BME280;29527;55.766;37.570;2023-04-26T00:44:15;98506.44;;;12.68;67.06
37792;BME280;29527;55.766;37.570;2023-04-26T00:46:41;98507.09;;;12.70;67.14
37792;BME280;29527;55.766;37.570;2023-04-26T00:49:06;98499.22;;;12.69;67.63
37792;BME280;29527;55.766;37.570;2023-04-26T00:51:32;98500.38;;;12.66;67.30
37792;BME280;29527;55.766;37.570;2023-04-26T00:53:58;98499.22;;;12.60;67.48
37792;BME280;29527;55.766;37.570;2023-04-26T00:56:24;98498.53;;;12.58;67.85
37792;BME280;29527;55.766;37.570;2023-04-26T00:58:50;98492.50;;;12.56;67.97
37792;BME280;29527;55.766;37.570;2023-04-26T01:01:16;98491.69;;;12.56;67.76
37792;BME280;29527;55.766;37.570;2023-04-26T01:03:41;98481.25;;;12.53;67.82
37792;BME280;29527;55.766;37.570;2023-04-26T01:06:09;98485.16;;;12.50;68.14
37792;BME280;29527;55.766;37.570;2023-04-26T01:08:35;98480.94;;;12.47;68.30
37792;BME280;29527;55.766;37.570;2023-04-26T01:11:01;98472.72;;;12.49;68.46
37792;BME280;29527;55.766;37.570;2023-04-26T01:13:27;98480.25;;;12.54;68.59
37792;BME280;29527;55.766;37.570;2023-04-26T01:15:54;98470.22;;;12.56;68.27
37792;BME280;29527;55.766;37.570;2023-04-26T01:18:20;98464.31;;;12.60;68.39
37792;BME280;29527;55.766;37.570;2023-04-26T01:20:46;98459.78;;;12.61;68.24
37792;BME280;29527;55.766;37.570;2023-04-26T01:23:12;98461.13;;;12.65;68.37
37792;BME280;29527;55.766;37.570;2023-04-26T01:25:38;98456.06;;;12.70;68.42
37792;BME280;29527;55.766;37.570;2023-04-26T01:28:03;98455.41;;;12.68;68.65
37792;BME280;29527;55.766;37.570;2023-04-26T01:30:29;98455.75;;;12.65;68.44
37792;BME280;29527;55.766;37.570;2023-04-26T01:32:54;98447.03;;;12.63;68.59
37792;BME280;29527;55.766;37.570;2023-04-26T01:35:20;98447.38;;;12.60;68.51
37792;BME280;29527;55.766;37.570;2023-04-26T01:37:46;98438.31;;;12.61;68.72
37792;BME280;29527;55.766;37.570;2023-04-26T01:40:12;98432.63;;;12.56;68.58
37792;BME280;29527;55.766;37.570;2023-04-26T01:42:37;98409.97;;;12.50;68.46
37792;BME280;29527;55.766;37.570;2023-04-26T01:45:03;98418.50;;;12.54;68.55
37792;BME280;29527;55.766;37.570;2023-04-26T01:47:30;98422.72;;;12.56;68.78
37792;BME280;29527;55.766;37.570;2023-04-26T01:49:55;98423.38;;;12.58;69.58
37792;BME280;29527;55.766;37.570;2023-04-26T01:52:21;98420.88;;;12.57;69.13
37792;BME280;29527;55.766;37.570;2023-04-26T01:54:47;98421.34;;;12.60;69.61
37792;BME280;29527;55.766;37.570;2023-04-26T01:57:12;98417.50;;;12.63;69.58
37792;BME280;29527;55.766;37.570;2023-04-26T01:59:38;98384.16;;;12.41;69.27
37792;BME280;29527;55.766;37.570;2023-04-26T02:02:03;98414.66;;;12.56;69.15
37792;BME280;29527;55.766;37.570;2023-04-26T02:04:29;98413.84;;;12.56;69.66
37792;BME280;29527;55.766;37.570;2023-04-26T02:06:55;98404.09;;;12.55;69.67
37792;BME280;29527;55.766;37.570;2023-04-26T02:09:21;98371.06;;;12.38;69.44
37792;BME280;29527;55.766;37.570;2023-04-26T02:11:46;98402.75;;;12.59;69.77
37792;BME280;29527;55.766;37.570;2023-04-26T02:14:12;98403.25;;;12.54;69.57
37792;BME280;29527;55.766;37.570;2023-04-26T02:16:41;98401.22;;;12.56;69.86
37792;BME280;29527;55.766;37.570;2023-04-26T02:19:06;98396.06;;;12.55;69.80
37792;BME280;29527;55.766;37.570;2023-04-26T02:21:54;98398.84;;;12.70;69.91
37792;BME280;29527;55.766;37.570;2023-04-26T02:24:20;98388.97;;;12.62;69.87
37792;BME280;29527;55.766;37.570;2023-04-26T02:26:46;98383.75;;;12.60;70.16
37792;BME280;29527;55.766;37.570;2023-04-26T02:29:12;98388.78;;;12.63;70.26
37792;BME280;29527;55.766;37.570;2023-04-26T02:31:37;98385.44;;;12.61;70.38
37792;BME280;29527;55.766;37.570;2023-04-26T02:34:03;98391.66;;;12.62;70.51
37792;BME280;29527;55.766;37.570;2023-04-26T02:36:29;98380.94;;;12.54;70.73
37792;BME280;29527;55.766;37.570;2023-04-26T02:38:54;98377.75;;;12.50;70.89
37792;BME280;29527;55.766;37.570;2023-04-26T02:41:20;98383.81;;;12.52;71.18
37792;BME280;29527;55.766;37.570;2023-04-26T02:43:46;98374.22;;;12.49;71.14
37792;BME280;29527;55.766;37.570;2023-04-26T02:46:11;98369.22;;;12.46;71.08
37792;BME280;29527;55.766;37.570;2023-04-26T02:48:37;98368.91;;;12.41;71.37
37792;BME280;29527;55.766;37.570;2023-04-26T02:51:02;98370.72;;;12.41;71.80
37792;BME280;29527;55.766;37.570;2023-04-26T02:53:28;98370.72;;;12.41;72.21
37792;BME280;29527;55.766;37.570;2023-04-26T02:55:53;98359.84;;;12.42;72.12
37792;BME280;29527;55.766;37.570;2023-04-26T02:58:19;98366.22;;;12.41;71.72
37792;BME280;29527;55.766;37.570;2023-04-26T03:00:48;98368.56;;;12.36;72.17
37792;BME280;29527;55.766;37.570;2023-04-26T03:03:14;98367.56;;;12.37;72.41
37792;BME280;29527;55.766;37.570;2023-04-26T03:05:39;98365.91;;;12.36;72.40
37792;BME280;29527;55.766;37.570;2023-04-26T03:08:06;98341.09;;;12.17;72.09
37792;BME280;29527;55.766;37.570;2023-04-26T03:10:31;98360.88;;;12.33;72.80
37792;BME280;29527;55.766;37.570;2023-04-26T03:12:57;98357.34;;;12.32;72.86
37792;BME280;29527;55.766;37.570;2023-04-26T03:15:22;98352.81;;;12.33;73.07
37792;BME280;29527;55.766;37.570;2023-04-26T03:17:48;98351.81;;;12.34;73.40
37792;BME280;29527;55.766;37.570;2023-04-26T03:20:13;98349.94;;;12.34;72.87
37792;BME280;29527;55.766;37.570;2023-04-26T03:22:39;98339.56;;;12.31;73.10
37792;BME280;29527;55.766;37.570;2023-04-26T03:25:05;98339.56;;;12.31;73.31
37792;BME280;29527;55.766;37.570;2023-04-26T03:27:33;98348.78;;;12.37;73.06
37792;BME280;29527;55.766;37.570;2023-04-26T03:29:58;98339.88;;;12.37;72.72
37792;BME280;29527;55.766;37.570;2023-04-26T03:32:24;98343.22;;;12.39;72.82
37792;BME280;29527;55.766;37.570;2023-04-26T03:34:50;98332.19;;;12.33;72.83
37792;BME280;29527;55.766;37.570;2023-04-26T03:37:15;98313.22;;;12.27;73.49
37792;BME280;29527;55.766;37.570;2023-04-26T03:39:41;98330.47;;;12.49;73.54
37792;BME280;29527;55.766;37.570;2023-04-26T03:42:06;98340.16;;;12.58;72.95
37792;BME280;29527;55.766;37.570;2023-04-26T03:44:32;98334.75;;;12.67;72.79
37792;BME280;29527;55.766;37.570;2023-04-26T03:46:57;98330.22;;;12.67;72.55
37792;BME280;29527;55.766;37.570;2023-04-26T03:49:23;98327.84;;;12.72;72.44
37792;BME280;29527;55.766;37.570;2023-04-26T03:51:49;98297.19;;;12.58;72.32
37792;BME280;29527;55.766;37.570;2023-04-26T03:54:15;98330.16;;;12.75;71.87
37792;BME280;29527;55.766;37.570;2023-04-26T03:56:40;98322.16;;;12.67;72.05
37792;BME280;29527;55.766;37.570;2023-04-26T03:59:06;98321.16;;;12.68;72.28
37792;BME280;29527;55.766;37.570;2023-04-26T04:01:33;98315.78;;;12.68;72.61
37792;BME280;29527;55.766;37.570;2023-04-26T04:03:59;98330.53;;;12.72;72.48
37792;BME280;29527;55.766;37.570;2023-04-26T04:06:24;98327.47;;;12.75;72.46
37792;BME280;29527;55.766;37.570;2023-04-26T04:08:50;98314.56;;;12.79;72.54
37792;BME280;29527;55.766;37.570;2023-04-26T04:11:15;98288.97;;;12.60;72.31
37792;BME280;29527;55.766;37.570;2023-04-26T04:13:41;98314.38;;;12.81;72.26
37792;BME280;29527;55.766;37.570;2023-04-26T04:16:06;98318.56;;;12.83;72.22
37792;BME280;29527;55.766;37.570;2023-04-26T04:18:34;98321.44;;;12.82;72.09
37792;BME280;29527;55.766;37.570;2023-04-26T04:21:00;98325.78;;;12.83;72.45
37792;BME280;29527;55.766;37.570;2023-04-26T04:23:26;98315.72;;;12.85;72.42
37792;BME280;29527;55.766;37.570;2023-04-26T04:25:52;98317.03;;;12.89;71.94
37792;BME280;29527;55.766;37.570;2023-04-26T04:28:17;98321.38;;;12.90;72.03
37792;BME280;29527;55.766;37.570;2023-04-26T04:30:43;98286.19;;;12.76;71.98
37792;BME280;29527;55.766;37.570;2023-04-26T04:33:10;98304.25;;;12.91;72.14
37792;BME280;29527;55.766;37.570;2023-04-26T04:35:36;98311.44;;;12.99;72.25
37792;BME280;29527;55.766;37.570;2023-04-26T04:38:02;98315.94;;;13.06;71.95
37792;BME280;29527;55.766;37.570;2023-04-26T04:40:28;98317.03;;;13.12;71.64
37792;BME280;29527;55.766;37.570;2023-04-26T04:42:54;98305.47;;;13.12;71.09
37792;BME280;29527;55.766;37.570;2023-04-26T04:45:20;98288.25;;;12.98;70.83
37792;BME280;29527;55.766;37.570;2023-04-26T04:47:45;98312.16;;;13.16;70.97
37792;BME280;29527;55.766;37.570;2023-04-26T04:50:11;98299.91;;;13.13;70.97
37792;BME280;29527;55.766;37.570;2023-04-26T04:52:37;98310.25;;;13.25;70.64
37792;BME280;29527;55.766;37.570;2023-04-26T04:55:03;98316.94;;;13.29;70.64
37792;BME280;29527;55.766;37.570;2023-04-26T04:57:30;98304.00;;;13.32;71.01
37792;BME280;29527;55.766;37.570;2023-04-26T04:59:57;98308.28;;;13.42;69.95
37792;BME280;29527;55.766;37.570;2023-04-26T05:02:22;98306.13;;;13.45;70.15
37792;BME280;29527;55.766;37.570;2023-04-26T05:04:48;98310.59;;;13.53;70.42
37792;BME280;29527;55.766;37.570;2023-04-26T05:07:13;98302.97;;;13.57;69.80
37792;BME280;29527;55.766;37.570;2023-04-26T05:09:41;98298.09;;;13.60;69.24
37792;BME280;29527;55.766;37.570;2023-04-26T05:12:06;98308.47;;;13.63;69.08
37792;BME280;29527;55.766;37.570;2023-04-26T05:14:32;98301.97;;;13.58;69.11
37792;BME280;29527;55.766;37.570;2023-04-26T05:16:57;98276.53;;;13.45;69.16
37792;BME280;29527;55.766;37.570;2023-04-26T05:19:23;98302.94;;;13.65;68.88
37792;BME280;29527;55.766;37.570;2023-04-26T05:21:49;98298.38;;;13.66;68.52
37792;BME280;29527;55.766;37.570;2023-04-26T05:24:15;98270.78;;;13.48;68.75
37792;BME280;29527;55.766;37.570;2023-04-26T05:26:40;98292.34;;;13.63;68.16
37792;BME280;29527;55.766;37.570;2023-04-26T05:29:06;98300.31;;;13.72;68.14
37792;BME280;29527;55.766;37.570;2023-04-26T05:31:31;98306.19;;;13.75;68.13
37792;BME280;29527;55.766;37.570;2023-04-26T05:33:57;98299.63;;;13.78;68.46
37792;BME280;29527;55.766;37.570;2023-04-26T05:36:22;98301.56;;;13.84;68.16
37792;BME280;29527;55.766;37.570;2023-04-26T05:38:48;98310.94;;;13.88;68.19
37792;BME280;29527;55.766;37.570;2023-04-26T05:41:13;98300.41;;;14.02;67.85
37792;BME280;29527;55.766;37.570;2023-04-26T05:43:39;98290.94;;;14.06;67.33
37792;BME280;29527;55.766;37.570;2023-04-26T05:46:04;98296.88;;;14.16;67.15
37792;BME280;29527;55.766;37.570;2023-04-26T05:48:30;98305.06;;;14.23;66.53
37792;BME280;29527;55.766;37.570;2023-04-26T05:50:56;98297.44;;;14.27;66.68
37792;BME280;29527;55.766;37.570;2023-04-26T05:53:21;98292.50;;;14.30;65.91
37792;BME280;29527;55.766;37.570;2023-04-26T05:55:47;98302.72;;;14.35;66.03
37792;BME280;29527;55.766;37.570;2023-04-26T05:58:13;98300.88;;;14.35;65.97
37792;BME280;29527;55.766;37.570;2023-04-26T06:00:38;98305.53;;;14.27;66.04
37792;BME280;29527;55.766;37.570;2023-04-26T06:03:05;98296.59;;;14.26;66.41
37792;BME280;29527;55.766;37.570;2023-04-26T06:05:31;98307.00;;;14.29;66.32
37792;BME280;29527;55.766;37.570;2023-04-26T06:07:57;98275.72;;;14.13;65.98
37792;BME280;29527;55.766;37.570;2023-04-26T06:10:22;98308.88;;;14.29;66.09
37792;BME280;29527;55.766;37.570;2023-04-26T06:12:48;98307.00;;;14.29;66.04
37792;BME280;29527;55.766;37.570;2023-04-26T06:15:14;98309.50;;;14.31;66.16
37792;BME280;29527;55.766;37.570;2023-04-26T06:17:40;98311.19;;;14.32;66.02
37792;BME280;29527;55.766;37.570;2023-04-26T06:20:07;98314.53;;;14.34;66.39
37792;BME280;29527;55.766;37.570;2023-04-26T06:22:34;98308.75;;;14.37;66.00
37792;BME280;29527;55.766;37.570;2023-04-26T06:25:00;98310.91;;;14.42;66.00
37792;BME280;29527;55.766;37.570;2023-04-26T06:27:25;98307.47;;;14.33;66.34
37792;BME280;29527;55.766;37.570;2023-04-26T06:29:51;98309.63;;;14.38;66.69
37792;BME280;29527;55.766;37.570;2023-04-26T06:32:17;98302.63;;;14.28;66.88
37792;BME280;29527;55.766;37.570;2023-04-26T06:34:42;98315.06;;;14.29;66.91
37792;BME280;29527;55.766;37.570;2023-04-26T06:37:10;98321.41;;;14.37;66.94
37792;BME280;29527;55.766;37.570;2023-04-26T06:39:36;98319.16;;;14.40;66.62
37792;BME280;29527;55.766;37.570;2023-04-26T06:42:03;98324.16;;;14.43;66.54
37792;BME280;29527;55.766;37.570;2023-04-26T06:44:29;98326.84;;;14.43;66.69
37792;BME280;29527;55.766;37.570;2023-04-26T06:46:55;98315.81;;;14.38;66.18
37792;BME280;29527;55.766;37.570;2023-04-26T06:49:21;98326.84;;;14.43;66.55
37792;BME280;29527;55.766;37.570;2023-04-26T06:51:47;98328.84;;;14.49;66.02
37792;BME280;29527;55.766;37.570;2023-04-26T06:54:13;98328.56;;;14.59;65.96
37792;BME280;29527;55.766;37.570;2023-04-26T06:56:38;98335.88;;;14.50;64.81
37792;BME280;29527;55.766;37.570;2023-04-26T06:59:05;98333.56;;;14.47;65.48
37792;BME280;29527;55.766;37.570;2023-04-26T07:01:32;98328.44;;;14.53;65.83
37792;BME280;29527;55.766;37.570;2023-04-26T07:03:59;98338.75;;;14.64;66.33
37792;BME280;29527;55.766;37.570;2023-04-26T07:06:29;98339.84;;;14.70;65.26
37792;BME280;29527;55.766;37.570;2023-04-26T07:08:57;98333.56;;;14.77;65.51
37792;BME280;29527;55.766;37.570;2023-04-26T07:11:22;98324.72;;;14.84;65.83
37792;BME280;29527;55.766;37.570;2023-04-26T07:13:48;98342.78;;;15.05;64.98
37792;BME280;29527;55.766;37.570;2023-04-26T07:16:13;98334.16;;;15.10;64.29
37792;BME280;29527;55.766;37.570;2023-04-26T07:18:39;98315.72;;;14.91;64.00
37792;BME280;29527;55.766;37.570;2023-04-26T07:21:05;98346.59;;;15.11;64.62
37792;BME280;29527;55.766;37.570;2023-04-26T07:23:31;98347.44;;;15.11;64.27
37792;BME280;29527;55.766;37.570;2023-04-26T07:25:57;98347.06;;;15.14;64.19
37792;BME280;29527;55.766;37.570;2023-04-26T07:28:23;98347.06;;;15.14;64.04
37792;BME280;29527;55.766;37.570;2023-04-26T07:30:48;98345.78;;;15.10;63.96
37792;BME280;29527;55.766;37.570;2023-04-26T07:33:14;98353.56;;;15.05;64.12
37792;BME280;29527;55.766;37.570;2023-04-26T07:35:39;98350.69;;;15.06;64.05
37792;BME280;29527;55.766;37.570;2023-04-26T07:38:05;98337.06;;;14.93;63.99
37792;BME280;29527;55.766;37.570;2023-04-26T07:40:31;98355.91;;;14.93;63.93
37792;BME280;29527;55.766;37.570;2023-04-26T07:42:57;98361.59;;;14.98;64.42
37792;BME280;29527;55.766;37.570;2023-04-26T07:45:23;98351.09;;;15.03;63.83
37792;BME280;29527;55.766;37.570;2023-04-26T07:47:48;98362.38;;;15.14;63.57
37792;BME280;29527;55.766;37.570;2023-04-26T07:50:14;98333.69;;;15.06;64.25
37792;BME280;29527;55.766;37.570;2023-04-26T07:52:39;98360.59;;;15.36;63.71
37792;BME280;29527;55.766;37.570;2023-04-26T07:55:07;98344.78;;;15.33;64.12
37792;BME280;29527;55.766;37.570;2023-04-26T07:57:32;98369.91;;;15.55;64.04
37792;BME280;29527;55.766;37.570;2023-04-26T07:59:58;98370.03;;;15.69;64.32
37792;BME280;29527;55.766;37.570;2023-04-26T08:02:23;98356.53;;;15.90;62.54
37792;BME280;29527;55.766;37.570;2023-04-26T08:04:50;98369.03;;;15.91;61.59
37792;BME280;29527;55.766;37.570;2023-04-26T08:07:19;98379.69;;;16.00;62.05
37792;BME280;29527;55.766;37.570;2023-04-26T08:09:46;98369.38;;;16.10;62.28
37792;BME280;29527;55.766;37.570;2023-04-26T08:12:13;98374.31;;;16.35;61.89
37792;BME280;29527;55.766;37.570;2023-04-26T08:14:39;98365.28;;;16.49;59.47
37792;BME280;29527;55.766;37.570;2023-04-26T08:17:07;98366.50;;;16.40;59.96
37792;BME280;29527;55.766;37.570;2023-04-26T08:19:34;98373.44;;;16.28;61.40
37792;BME280;29527;55.766;37.570;2023-04-26T08:22:00;98370.47;;;16.16;60.43
37792;BME280;29527;55.766;37.570;2023-04-26T08:24:26;98377.97;;;16.20;60.88
37792;BME280;29527;55.766;37.570;2023-04-26T08:26:52;98353.81;;;16.12;59.74
37792;BME280;29527;55.766;37.570;2023-04-26T08:29:17;98380.69;;;16.27;60.20
37792;BME280;29527;55.766;37.570;2023-04-26T08:31:45;98388.38;;;16.24;60.05
37792;BME280;29527;55.766;37.570;2023-04-26T08:34:10;98393.53;;;16.18;60.52
37792;BME280;29527;55.766;37.570;2023-04-26T08:36:40;98382.53;;;16.20;61.20
37792;BME280;29527;55.766;37.570;2023-04-26T08:39:07;98384.06;;;16.29;60.88
37792;BME280;29527;55.766;37.570;2023-04-26T08:41:42;98383.47;;;16.34;60.94
37792;BME280;29527;55.766;37.570;2023-04-26T08:44:08;98388.91;;;16.41;60.93
37792;BME280;29527;55.766;37.570;2023-04-26T08:46:43;98385.28;;;16.62;60.78
37792;BME280;29527;55.766;37.570;2023-04-26T08:51:52;98388.53;;;16.86;58.95
37792;BME280;29527;55.766;37.570;2023-04-26T08:54:19;98363.84;;;16.89;59.58
37792;BME280;29527;55.766;37.570;2023-04-26T08:56:45;98392.28;;;17.20;58.88
37792;BME280;29527;55.766;37.570;2023-04-26T08:59:11;98385.84;;;17.21;58.43
37792;BME280;29527;55.766;37.570;2023-04-26T09:01:42;98391.03;;;17.22;58.48
37792;BME280;29527;55.766;37.570;2023-04-26T09:04:08;98398.03;;;17.03;57.36
37792;BME280;29527;55.766;37.570;2023-04-26T09:06:34;98389.53;;;16.71;58.30
37792;BME280;29527;55.766;37.570;2023-04-26T09:09:02;98372.41;;;16.29;59.96
37792;BME280;29527;55.766;37.570;2023-04-26T09:11:51;98378.44;;;16.31;59.40
37792;BME280;29527;55.766;37.570;2023-04-26T09:14:17;98409.66;;;16.33;60.13
37792;BME280;29527;55.766;37.570;2023-04-26T09:16:42;98418.44;;;16.42;60.44
37792;BME280;29527;55.766;37.570;2023-04-26T09:19:08;98400.19;;;16.51;58.73
37792;BME280;29527;55.766;37.570;2023-04-26T09:21:42;98413.81;;;16.64;58.67
37792;BME280;29527;55.766;37.570;2023-04-26T09:24:12;98415.22;;;16.60;59.78
37792;BME280;29527;55.766;37.570;2023-04-26T09:26:38;98404.72;;;16.72;58.86
37792;BME280;29527;55.766;37.570;2023-04-26T09:29:11;98411.94;;;17.00;59.31
37792;BME280;29527;55.766;37.570;2023-04-26T09:31:41;98413.75;;;16.93;57.29
37792;BME280;29527;55.766;37.570;2023-04-26T09:34:12;98406.44;;;16.87;58.45
37792;BME280;29527;55.766;37.570;2023-04-26T09:36:53;98412.09;;;16.92;58.42
37792;BME280;29527;55.766;37.570;2023-04-26T09:39:36;98423.44;;;16.81;59.66
37792;BME280;29527;55.766;37.570;2023-04-26T09:42:03;98417.31;;;16.58;60.03
37792;BME280;29527;55.766;37.570;2023-04-26T09:44:29;98423.28;;;16.54;59.84
37792;BME280;29527;55.766;37.570;2023-04-26T09:47:09;98429.44;;;16.69;60.46
37792;BME280;29527;55.766;37.570;2023-04-26T09:52:11;98405.41;;;16.24;59.79
37792;BME280;29527;55.766;37.570;2023-04-26T09:54:47;98435.09;;;16.24;60.74
37792;BME280;29527;55.766;37.570;2023-04-26T09:57:15;98439.00;;;16.15;61.58
37792;BME280;29527;55.766;37.570;2023-04-26T09:59:50;98431.97;;;16.20;61.69
37792;BME280;29527;55.766;37.570;2023-04-26T10:02:20;98438.72;;;16.31;61.53
37792;BME280;29527;55.766;37.570;2023-04-26T10:04:51;98439.41;;;16.40;60.81
37792;BME280;29527;55.766;37.570;2023-04-26T10:07:19;98448.41;;;16.47;60.14
37792;BME280;29527;55.766;37.570;2023-04-26T10:09:45;98440.78;;;16.58;58.90
37792;BME280;29527;55.766;37.570;2023-04-26T10:12:13;98448.34;;;16.69;58.84
37792;BME280;29527;55.766;37.570;2023-04-26T10:14:40;98438.22;;;16.78;59.16
37792;BME280;29527;55.766;37.570;2023-04-26T10:17:06;98445.31;;;16.86;59.18
37792;BME280;29527;55.766;37.570;2023-04-26T10:19:35;98453.69;;;16.98;58.91
37792;BME280;29527;55.766;37.570;2023-04-26T10:22:08;98450.91;;;17.13;58.41
37792;BME280;29527;55.766;37.570;2023-04-26T10:24:35;98453.81;;;17.11;57.77
37792;BME280;29527;55.766;37.570;2023-04-26T10:27:01;98454.00;;;17.10;58.23
37792;BME280;29527;55.766;37.570;2023-04-26T10:32:19;98458.81;;;17.14;58.11
37792;BME280;29527;55.766;37.570;2023-04-26T10:35:13;98462.22;;;17.30;58.10
37792;BME280;29527;55.766;37.570;2023-04-26T10:40:37;98466.16;;;17.27;57.34
37792;BME280;29527;55.766;37.570;2023-04-26T10:45:48;98467.16;;;16.84;58.36
37792;BME280;29527;55.766;37.570;2023-04-26T10:53:31;98474.53;;;16.40;60.25
37792;BME280;29527;55.766;37.570;2023-04-26T10:55:57;98482.88;;;16.45;59.82
37792;BME280;29527;55.766;37.570;2023-04-26T10:58:33;98480.97;;;16.68;59.48
37792;BME280;29527;55.766;37.570;2023-04-26T11:03:41;98472.50;;;16.77;58.25
37792;BME280;29527;55.766;37.570;2023-04-26T11:06:08;98473.19;;;16.86;57.77
37792;BME280;29527;55.766;37.570;2023-04-26T11:08:34;98476.97;;;16.92;58.28
37792;BME280;29527;55.766;37.570;2023-04-26T11:11:05;98476.25;;;17.05;58.84
37792;BME280;29527;55.766;37.570;2023-04-26T11:13:42;98484.31;;;17.40;56.71
37792;BME280;29527;55.766;37.570;2023-04-26T11:16:13;98483.13;;;17.56;54.95
37792;BME280;29527;55.766;37.570;2023-04-26T11:18:43;98483.66;;;17.87;54.38
37792;BME280;29527;55.766;37.570;2023-04-26T11:21:10;98487.44;;;17.99;54.05
37792;BME280;29527;55.766;37.570;2023-04-26T11:23:37;98486.44;;;18.20;53.57
37792;BME280;29527;55.766;37.570;2023-04-26T11:26:07;98485.22;;;18.43;52.37
37792;BME280;29527;55.766;37.570;2023-04-26T11:28:37;98490.63;;;18.63;52.28
37792;BME280;29527;55.766;37.570;2023-04-26T11:31:04;98499.38;;;18.79;51.42
37792;BME280;29527;55.766;37.570;2023-04-26T11:33:31;98459.97;;;18.76;51.35
37792;BME280;29527;55.766;37.570;2023-04-26T11:35:58;98492.03;;;19.20;49.80
37792;BME280;29527;55.766;37.570;2023-04-26T11:38:25;98500.75;;;19.35;49.53
37792;BME280;29527;55.766;37.570;2023-04-26T11:40:56;98495.69;;;19.46;49.75
37792;BME280;29527;55.766;37.570;2023-04-26T11:43:33;98507.53;;;19.65;49.53
37792;BME280;29527;55.766;37.570;2023-04-26T11:46:00;98506.34;;;19.54;48.73
37792;BME280;29527;55.766;37.570;2023-04-26T11:48:27;98499.81;;;19.62;48.90
37792;BME280;29527;55.766;37.570;2023-04-26T11:50:55;98510.19;;;19.78;48.38
37792;BME280;29527;55.766;37.570;2023-04-26T11:53:21;98506.22;;;19.81;48.29
37792;BME280;29527;55.766;37.570;2023-04-26T11:55:47;98513.94;;;19.84;47.60
37792;BME280;29527;55.766;37.570;2023-04-26T11:58:13;98519.56;;;19.83;47.30
37792;BME280;29527;55.766;37.570;2023-04-26T12:00:56;98519.31;;;19.98;47.79
37792;BME280;29527;55.766;37.570;2023-04-26T12:03:22;98516.50;;;19.65;46.90
37792;BME280;29527;55.766;37.570;2023-04-26T12:05:55;98514.28;;;19.49;47.69
37792;BME280;29527;55.766;37.570;2023-04-26T12:08:25;98534.81;;;19.18;48.59
37792;BME280;29527;55.766;37.570;2023-04-26T12:10:51;98539.63;;;18.69;49.71
37792;BME280;29527;55.766;37.570;2023-04-26T12:13:18;98542.28;;;18.21;51.86
37792;BME280;29527;55.766;37.570;2023-04-26T12:15:44;98551.16;;;17.88;52.34
37792;BME280;29527;55.766;37.570;2023-04-26T12:18:11;98533.91;;;17.54;51.29
37792;BME280;29527;55.766;37.570;2023-04-26T12:20:41;98545.41;;;17.21;51.58
37792;BME280;29527;55.766;37.570;2023-04-26T12:23:15;98543.22;;;17.10;52.48
37792;BME280;29527;55.766;37.570;2023-04-26T12:25:55;98513.38;;;16.96;52.48
37792;BME280;29527;55.766;37.570;2023-04-26T12:28:25;98540.50;;;17.03;52.20
37792;BME280;29527;55.766;37.570;2023-04-26T12:30:50;98548.63;;;17.03;51.39
37792;BME280;29527;55.766;37.570;2023-04-26T12:33:16;98539.03;;;17.00;51.35
37792;BME280;29527;55.766;37.570;2023-04-26T12:35:47;98544.88;;;17.04;50.61
37792;BME280;29527;55.766;37.570;2023-04-26T12:38:13;98538.38;;;16.98;49.80
37792;BME280;29527;55.766;37.570;2023-04-26T12:40:40;98542.09;;;16.97;50.73
37792;BME280;29527;55.766;37.570;2023-04-26T12:43:06;98541.09;;;16.98;50.90
37792;BME280;29527;55.766;37.570;2023-04-26T12:45:31;98544.88;;;17.04;50.75
37792;BME280;29527;55.766;37.570;2023-04-26T12:47:57;98548.00;;;17.01;50.75
37792;BME280;29527;55.766;37.570;2023-04-26T12:50:23;98543.59;;;17.00;50.70
37792;BME280;29527;55.766;37.570;2023-04-26T12:52:49;98479.53;;;16.72;50.68
37792;BME280;29527;55.766;37.570;2023-04-26T12:55:15;98545.41;;;17.21;50.97
37792;BME280;29527;55.766;37.570;2023-04-26T12:57:42;98550.69;;;17.36;48.75
37792;BME280;29527;55.766;37.570;2023-04-26T13:00:10;98547.81;;;17.44;48.86
37792;BME280;29527;55.766;37.570;2023-04-26T13:02:37;98552.94;;;17.32;49.07
37792;BME280;29527;55.766;37.570;2023-04-26T13:05:03;98562.91;;;17.25;49.47
37792;BME280;29527;55.766;37.570;2023-04-26T13:07:38;98544.13;;;17.17;49.36
37792;BME280;29527;55.766;37.570;2023-04-26T13:10:05;98553.00;;;17.04;49.31